createdAt,value
2017-09-30T00:00:09.419Z,29.40
2017-09-30T00:02:36.996Z,29.73
2017-09-30T00:05:04.630Z,31.52
2017-09-30T00:07:32.271Z,33.17
2017-09-30T00:09:59.862Z,36.08
2017-09-30T00:12:27.444Z,30.85
2017-09-30T00:14:55.066Z,30.83
2017-09-30T00:17:22.694Z,27.80
2017-09-30T00:19:50.322Z,32.28
2017-09-30T00:22:17.951Z,27.58
2017-09-30T00:24:45.577Z,30.37
2017-09-30T00:27:14.015Z,34.88
2017-09-30T00:29:41.647Z,29.65
2017-09-30T00:32:09.227Z,31.30
2017-09-30T00:34:36.846Z,36.47
2017-09-30T00:37:04.450Z,30.62
2017-09-30T00:39:32.067Z,36.78
2017-09-30T00:41:59.755Z,27.58
2017-09-30T00:44:27.354Z,31.67
2017-09-30T00:46:54.975Z,27.70
2017-09-30T00:49:22.599Z,27.17
2017-09-30T00:51:50.199Z,27.10
2017-09-30T00:54:17.827Z,29.48
2017-09-30T00:56:46.222Z,25.80
2017-09-30T00:59:13.870Z,34.72
2017-09-30T01:01:42.270Z,26.55
2017-09-30T01:04:09.922Z,27.37
2017-09-30T01:06:37.567Z,30.55
2017-09-30T01:09:05.966Z,31.98
2017-09-30T01:11:33.553Z,28.33
2017-09-30T01:14:01.137Z,26.98
2017-09-30T01:16:28.771Z,26.62
2017-09-30T01:18:56.362Z,43.08
2017-09-30T01:21:24.043Z,29.50
2017-09-30T01:23:51.685Z,33.65
2017-09-30T01:26:19.318Z,26.52
2017-09-30T01:28:46.947Z,28.10
2017-09-30T01:31:14.638Z,30.23
2017-09-30T01:33:42.300Z,37.40
2017-09-30T01:36:09.941Z,34.45
2017-09-30T01:38:37.561Z,30.30
2017-09-30T01:41:05.206Z,27.75
2017-09-30T01:43:32.814Z,23.73
2017-09-30T01:46:01.278Z,43.83
2017-09-30T01:48:28.899Z,29.63
2017-09-30T01:50:56.552Z,31.73
2017-09-30T01:53:24.254Z,28.35
2017-09-30T01:55:51.866Z,28.08
2017-09-30T01:58:19.527Z,31.77
2017-09-30T02:00:47.189Z,27.92
2017-09-30T02:03:14.855Z,25.65
2017-09-30T02:05:42.459Z,28.83
2017-09-30T02:08:10.052Z,30.95
2017-09-30T02:10:38.409Z,27.23
2017-09-30T02:13:06.038Z,24.48
2017-09-30T02:15:33.620Z,31.15
2017-09-30T02:18:01.230Z,37.78
2017-09-30T02:20:28.861Z,26.08
2017-09-30T02:22:56.679Z,31.35
2017-09-30T02:25:24.263Z,27.95
2017-09-30T02:27:51.888Z,28.12
2017-09-30T02:30:19.521Z,26.52
2017-09-30T02:32:47.138Z,29.90
2017-09-30T02:35:14.762Z,44.03
2017-09-30T02:37:42.378Z,24.75
2017-09-30T02:40:10.010Z,29.30
2017-09-30T02:42:37.664Z,31.73
2017-09-30T02:45:05.287Z,27.33
2017-09-30T02:47:33.679Z,22.73
2017-09-30T02:50:01.299Z,26.23
2017-09-30T02:52:28.941Z,35.97
2017-09-30T02:54:56.755Z,26.92
2017-09-30T02:57:25.114Z,25.37
2017-09-30T02:59:52.794Z,30.83
2017-09-30T03:02:20.423Z,30.00
2017-09-30T03:04:48.061Z,28.55
2017-09-30T03:07:16.446Z,26.73
2017-09-30T03:09:44.061Z,22.73
2017-09-30T03:12:12.442Z,25.80
2017-09-30T03:14:40.072Z,25.12
2017-09-30T03:17:09.680Z,36.13
2017-09-30T03:19:37.306Z,26.17
2017-09-30T03:22:04.923Z,27.65
2017-09-30T03:24:32.543Z,24.70
2017-09-30T03:27:00.179Z,26.77
2017-09-30T03:29:27.764Z,31.92
2017-09-30T03:31:55.383Z,26.83
2017-09-30T03:34:23.726Z,25.00
2017-09-30T03:36:51.367Z,28.02
2017-09-30T03:39:19.001Z,28.77
2017-09-30T03:41:46.623Z,24.45
2017-09-30T03:44:14.257Z,25.42
2017-09-30T03:46:41.866Z,26.87
2017-09-30T03:49:09.488Z,28.95
2017-09-30T03:51:37.113Z,25.83
2017-09-30T03:54:04.734Z,26.65
2017-09-30T03:56:32.396Z,24.85
2017-09-30T03:58:59.982Z,26.05
2017-09-30T04:01:27.614Z,31.83
2017-09-30T04:03:55.281Z,26.48
2017-09-30T04:06:22.910Z,27.77
2017-09-30T04:08:50.530Z,36.65
2017-09-30T04:11:18.085Z,27.00
2017-09-30T04:13:46.538Z,30.73
2017-09-30T04:16:14.172Z,28.50
2017-09-30T04:18:41.760Z,26.45
2017-09-30T04:21:09.346Z,33.30
2017-09-30T04:23:36.978Z,27.05
2017-09-30T04:26:04.594Z,31.12
2017-09-30T04:28:32.214Z,29.55
2017-09-30T04:30:59.798Z,38.47
2017-09-30T04:33:27.427Z,27.65
2017-09-30T04:35:55.073Z,24.52
2017-09-30T04:38:22.709Z,29.98
2017-09-30T04:40:50.343Z,22.02
2017-09-30T04:43:17.934Z,29.60
2017-09-30T04:45:45.574Z,27.95
2017-09-30T04:48:13.175Z,29.15
2017-09-30T04:50:40.798Z,26.67
2017-09-30T04:53:08.434Z,28.25
2017-09-30T04:55:36.139Z,27.55
2017-09-30T04:58:03.774Z,28.60
2017-09-30T05:00:31.402Z,26.80
2017-09-30T05:02:59.027Z,34.90
2017-09-30T05:05:26.658Z,30.30
2017-09-30T05:07:54.338Z,28.10
2017-09-30T05:10:21.979Z,25.15
2017-09-30T05:12:49.617Z,24.90
2017-09-30T05:15:17.230Z,38.20
2017-09-30T05:17:44.814Z,35.65
2017-09-30T05:20:12.405Z,27.20
2017-09-30T05:22:40.797Z,24.83
2017-09-30T05:25:09.152Z,30.92
2017-09-30T05:27:36.766Z,25.58
2017-09-30T05:30:04.353Z,25.00
2017-09-30T05:32:31.992Z,22.10
2017-09-30T05:34:59.619Z,23.00
2017-09-30T05:37:28.007Z,22.70
2017-09-30T05:39:55.634Z,27.45
2017-09-30T05:42:23.255Z,26.17
2017-09-30T05:44:50.873Z,18.25
2017-09-30T05:47:18.509Z,17.77
2017-09-30T05:49:46.138Z,17.70
2017-09-30T05:52:13.716Z,20.80
2017-09-30T05:54:41.281Z,20.50
2017-09-30T05:57:08.928Z,17.90
2017-09-30T05:59:36.581Z,19.65
2017-09-30T06:02:04.229Z,18.67
2017-09-30T06:04:31.825Z,42.45
2017-09-30T06:06:59.458Z,22.55
2017-09-30T06:09:27.079Z,23.25
2017-09-30T06:11:54.701Z,16.67
2017-09-30T06:14:22.351Z,15.15
2017-09-30T06:16:49.940Z,16.35
2017-09-30T06:19:17.533Z,22.10
2017-09-30T06:21:45.938Z,15.98
2017-09-30T06:24:13.579Z,18.23
2017-09-30T06:26:41.159Z,17.57
2017-09-30T06:29:08.784Z,17.87
2017-09-30T06:31:36.445Z,13.63
2017-09-30T06:34:04.158Z,16.27
2017-09-30T06:36:31.799Z,13.47
2017-09-30T06:38:59.382Z,18.20
2017-09-30T06:41:27.057Z,18.43
2017-09-30T06:43:54.729Z,15.70
2017-09-30T06:46:23.236Z,16.80
2017-09-30T06:48:51.087Z,14.37
2017-09-30T06:51:18.726Z,12.17
2017-09-30T06:53:46.922Z,12.00
2017-09-30T06:56:14.630Z,20.03
2017-09-30T06:58:42.584Z,22.27
2017-09-30T07:01:10.257Z,12.77
2017-09-30T07:03:38.040Z,12.53
2017-09-30T07:06:05.734Z,12.90
2017-09-30T07:08:33.368Z,10.93
2017-09-30T07:11:01.062Z,11.13
2017-09-30T07:13:28.827Z,11.47
2017-09-30T07:16:02.979Z,11.80
2017-09-30T07:18:31.399Z,10.73
2017-09-30T07:20:59.122Z,18.33
2017-09-30T07:23:26.767Z,15.07
2017-09-30T07:25:54.428Z,16.83
2017-09-30T07:28:22.933Z,10.47
2017-09-30T07:30:50.527Z,19.80
2017-09-30T07:33:18.216Z,12.83
2017-09-30T07:35:45.792Z,17.33
2017-09-30T07:38:13.482Z,11.53
2017-09-30T07:40:41.125Z,10.07
2017-09-30T07:43:11.406Z,10.13
2017-09-30T07:45:39.082Z,11.40
2017-09-30T07:48:10.780Z,18.33
2017-09-30T07:50:38.438Z,17.70
2017-09-30T07:53:06.919Z,15.17
2017-09-30T07:55:34.718Z,14.97
2017-09-30T07:58:02.348Z,12.47
2017-09-30T08:00:30.017Z,21.40
2017-09-30T08:02:58.414Z,12.03
2017-09-30T08:05:30.299Z,9.60
2017-09-30T08:07:58.343Z,13.63
2017-09-30T08:10:26.488Z,9.50
2017-09-30T08:12:54.959Z,14.90
2017-09-30T08:15:22.790Z,11.70
2017-09-30T08:17:50.693Z,20.67
2017-09-30T08:20:23.415Z,13.03
2017-09-30T08:22:51.287Z,12.70
2017-09-30T08:25:18.887Z,16.30
2017-09-30T08:27:52.298Z,11.70
2017-09-30T08:30:20.787Z,13.43
2017-09-30T08:32:48.510Z,8.50
2017-09-30T08:35:20.647Z,19.90
2017-09-30T08:37:48.362Z,13.50
2017-09-30T08:40:16.151Z,17.50
2017-09-30T08:42:50.550Z,12.70
2017-09-30T08:45:23.270Z,11.93
2017-09-30T08:48:12.735Z,9.10
2017-09-30T08:50:41.365Z,14.93
2017-09-30T08:53:09.335Z,14.80
2017-09-30T08:55:37.107Z,14.93
2017-09-30T08:58:12.277Z,11.43
2017-09-30T09:00:52.801Z,23.57
2017-09-30T09:03:21.323Z,14.90
2017-09-30T09:05:52.147Z,20.83
2017-09-30T09:08:22.321Z,11.13
2017-09-30T09:10:50.000Z,18.17
2017-09-30T09:13:44.539Z,14.47
2017-09-30T09:16:12.211Z,23.93
2017-09-30T09:18:50.410Z,13.57
2017-09-30T09:21:42.079Z,9.50
2017-09-30T09:24:09.706Z,16.73
2017-09-30T09:26:46.141Z,9.00
2017-09-30T09:31:59.544Z,12.47
2017-09-30T09:34:27.195Z,10.20
2017-09-30T09:37:18.657Z,17.70
2017-09-30T09:39:54.956Z,16.53
2017-09-30T09:42:25.147Z,15.03
2017-09-30T09:44:53.101Z,15.30
2017-09-30T09:47:21.015Z,24.23
2017-09-30T09:49:49.419Z,12.13
2017-09-30T09:52:29.478Z,10.07
2017-09-30T09:54:57.079Z,12.63
2017-09-30T09:57:25.058Z,10.37
2017-09-30T09:59:55.883Z,12.00
2017-09-30T10:02:26.790Z,22.17
2017-09-30T10:04:55.592Z,13.53
2017-09-30T10:07:24.048Z,12.47
2017-09-30T10:12:42.779Z,14.67
2017-09-30T10:15:27.018Z,10.13
2017-09-30T10:17:58.936Z,14.73
2017-09-30T10:20:32.223Z,12.10
2017-09-30T10:25:58.150Z,12.97
2017-09-30T10:28:25.895Z,9.70
2017-09-30T10:31:05.267Z,14.00
2017-09-30T10:33:34.396Z,10.87
2017-09-30T10:36:02.343Z,13.27
2017-09-30T10:38:30.125Z,11.53
2017-09-30T10:40:58.249Z,18.83
2017-09-30T10:43:25.995Z,12.30
2017-09-30T10:45:53.695Z,10.83
2017-09-30T10:48:33.678Z,10.60
2017-09-30T10:51:01.561Z,10.37
2017-09-30T10:53:42.089Z,11.90
2017-09-30T10:56:15.952Z,7.10
2017-09-30T10:58:47.105Z,12.40
2017-09-30T11:01:14.746Z,14.30
2017-09-30T11:03:42.366Z,12.33
2017-09-30T11:06:10.002Z,13.43
2017-09-30T11:08:37.736Z,16.77
2017-09-30T11:11:05.358Z,9.50
2017-09-30T11:13:33.034Z,13.73
2017-09-30T11:16:01.471Z,13.77
2017-09-30T11:18:29.871Z,10.90
2017-09-30T11:20:57.502Z,17.63
2017-09-30T11:23:25.082Z,9.07
2017-09-30T11:25:53.462Z,11.47
2017-09-30T11:28:21.876Z,11.80
2017-09-30T11:30:49.502Z,8.97
2017-09-30T11:33:17.911Z,9.13
2017-09-30T11:35:46.377Z,11.77
2017-09-30T11:38:14.031Z,14.60
2017-09-30T11:40:41.682Z,9.37
2017-09-30T11:43:11.640Z,9.87
2017-09-30T11:45:39.329Z,12.67
2017-09-30T11:48:06.970Z,9.87
2017-09-30T11:50:34.594Z,12.73
2017-09-30T11:53:02.279Z,18.55
2017-09-30T11:55:29.907Z,23.12
2017-09-30T11:57:57.535Z,17.77
2017-09-30T12:00:25.172Z,15.57
2017-09-30T12:02:52.794Z,13.38
2017-09-30T12:05:20.389Z,15.00
2017-09-30T12:07:48.006Z,19.00
2017-09-30T12:10:15.625Z,16.52
2017-09-30T12:12:43.219Z,15.30
2017-09-30T12:15:10.850Z,13.27
2017-09-30T12:17:38.530Z,14.60
2017-09-30T12:20:06.159Z,10.85
2017-09-30T12:22:33.743Z,13.60
2017-09-30T12:25:01.367Z,13.50
2017-09-30T12:27:28.950Z,14.05
2017-09-30T12:29:56.579Z,15.10
2017-09-30T12:32:24.255Z,24.85
2017-09-30T12:34:51.938Z,12.45
2017-09-30T12:37:19.573Z,11.38
2017-09-30T12:39:47.163Z,13.52
2017-09-30T12:42:14.790Z,14.98
2017-09-30T12:44:42.419Z,19.52
2017-09-30T12:47:09.998Z,14.07
2017-09-30T12:49:37.595Z,13.35
2017-09-30T12:52:05.261Z,11.90
2017-09-30T12:54:32.886Z,13.60
2017-09-30T12:57:00.509Z,18.15
2017-09-30T12:59:28.141Z,20.92
2017-09-30T13:01:55.766Z,12.30
2017-09-30T13:04:24.155Z,11.65
2017-09-30T13:06:51.834Z,18.02
2017-09-30T13:09:19.443Z,15.45
2017-09-30T13:11:47.076Z,13.00
2017-09-30T13:14:14.668Z,15.63
2017-09-30T13:16:42.302Z,11.82
2017-09-30T13:19:09.923Z,14.77
2017-09-30T13:21:37.542Z,18.37
2017-09-30T13:24:05.163Z,20.20
2017-09-30T13:26:32.799Z,36.85
2017-09-30T13:29:01.194Z,33.88
2017-09-30T13:31:28.785Z,11.48
2017-09-30T13:33:56.415Z,17.90
2017-09-30T13:36:24.005Z,11.48
2017-09-30T13:38:51.622Z,16.70
2017-09-30T13:41:19.212Z,18.17
2017-09-30T13:43:46.892Z,16.00
2017-09-30T13:46:14.479Z,13.23
2017-09-30T13:48:42.059Z,12.02
2017-09-30T13:51:09.678Z,11.65
2017-09-30T13:53:37.257Z,12.45
2017-09-30T13:56:04.894Z,10.23
2017-09-30T13:58:32.521Z,12.93
2017-09-30T14:01:00.099Z,12.27
2017-09-30T14:03:27.738Z,17.23
2017-09-30T14:05:55.329Z,16.30
2017-09-30T14:08:22.916Z,10.95
2017-09-30T14:10:50.557Z,21.75
2017-09-30T14:13:18.330Z,14.95
2017-09-30T14:15:45.983Z,13.25
2017-09-30T14:18:13.618Z,11.73
2017-09-30T14:20:41.251Z,10.43
2017-09-30T14:23:08.842Z,14.82
2017-09-30T14:25:36.432Z,8.48
2017-09-30T14:28:04.030Z,12.07
2017-09-30T14:30:31.621Z,9.73
2017-09-30T14:32:59.262Z,9.68
2017-09-30T14:35:27.711Z,8.57
2017-09-30T14:37:55.362Z,15.10
2017-09-30T14:40:22.983Z,12.40
2017-09-30T14:42:50.714Z,11.32
2017-09-30T14:45:18.330Z,14.43
2017-09-30T14:47:45.984Z,14.05
2017-09-30T14:50:13.575Z,12.15
2017-09-30T14:52:41.197Z,12.02
2017-09-30T14:55:08.818Z,17.55
2017-09-30T14:57:36.429Z,8.32
2017-09-30T15:00:04.090Z,13.77
2017-09-30T15:02:31.767Z,16.83
2017-09-30T15:04:59.433Z,11.30
2017-09-30T15:07:27.013Z,10.73
2017-09-30T15:09:54.714Z,12.48
2017-09-30T15:12:22.326Z,10.35
2017-09-30T15:14:49.910Z,15.68
2017-09-30T15:17:17.532Z,13.25
2017-09-30T15:19:45.179Z,17.90
2017-09-30T15:22:12.836Z,11.23
2017-09-30T15:24:40.469Z,15.15
2017-09-30T15:27:08.295Z,15.40
2017-09-30T15:29:35.930Z,12.35
2017-09-30T15:32:03.513Z,23.80
2017-09-30T15:34:31.098Z,24.63
2017-09-30T15:36:58.688Z,12.30
2017-09-30T15:39:27.089Z,17.90
2017-09-30T15:41:54.685Z,12.48
2017-09-30T15:44:22.574Z,16.20
2017-09-30T15:46:50.221Z,16.27
2017-09-30T15:49:17.864Z,62.42
2017-09-30T15:51:45.502Z,17.12
2017-09-30T15:54:13.135Z,19.27
2017-09-30T15:56:40.839Z,34.10
2017-09-30T15:59:08.476Z,20.67
2017-09-30T16:01:36.069Z,17.80
2017-09-30T16:04:03.655Z,21.20
2017-09-30T16:06:31.287Z,15.50
2017-09-30T16:08:58.961Z,19.12
2017-09-30T16:11:26.549Z,14.60
2017-09-30T16:13:54.186Z,15.50
2017-09-30T16:16:21.826Z,16.15
2017-09-30T16:18:49.523Z,23.95
2017-09-30T16:21:17.130Z,14.25
2017-09-30T16:23:44.811Z,11.05
2017-09-30T16:26:12.474Z,11.77
2017-09-30T16:28:40.107Z,12.95
2017-09-30T16:31:07.787Z,23.30
2017-09-30T16:33:35.411Z,18.90
2017-09-30T16:36:03.022Z,15.27
2017-09-30T16:38:30.662Z,12.88
2017-09-30T16:40:58.290Z,16.67
2017-09-30T16:43:25.951Z,12.82
2017-09-30T16:45:53.590Z,20.23
2017-09-30T16:48:21.265Z,15.90
2017-09-30T16:50:48.897Z,21.92
2017-09-30T16:53:16.523Z,16.80
2017-09-30T16:55:44.112Z,28.58
2017-09-30T16:58:11.697Z,17.90
2017-09-30T17:00:39.294Z,16.70
2017-09-30T17:03:06.939Z,22.25
2017-09-30T17:05:34.557Z,17.58
2017-09-30T17:08:02.170Z,15.02
2017-09-30T17:10:29.754Z,14.73
2017-09-30T17:12:57.387Z,16.10
2017-09-30T17:15:25.027Z,20.02
2017-09-30T17:18:06.957Z,26.48
2017-09-30T17:20:34.588Z,27.98
2017-09-30T17:23:02.215Z,21.00
2017-09-30T17:25:29.872Z,24.80
2017-09-30T17:27:57.534Z,20.20
2017-09-30T17:30:25.166Z,20.00
2017-09-30T17:32:52.807Z,17.75
2017-09-30T17:35:20.438Z,15.90
2017-09-30T17:37:48.078Z,21.75
2017-09-30T17:40:15.723Z,17.17
2017-09-30T17:42:43.351Z,17.85
2017-09-30T17:45:10.952Z,17.40
2017-09-30T17:47:38.550Z,18.65
2017-09-30T17:50:06.162Z,23.55
2017-09-30T17:52:33.783Z,23.58
2017-09-30T17:55:01.409Z,21.52
2017-09-30T17:57:29.101Z,28.20
2017-09-30T17:59:57.359Z,18.48
2017-09-30T18:02:25.143Z,18.85
2017-09-30T18:04:53.165Z,21.25
2017-09-30T18:07:20.803Z,17.92
2017-09-30T18:09:48.383Z,17.52
2017-09-30T18:12:16.754Z,20.55
2017-09-30T18:14:44.339Z,16.92
2017-09-30T18:17:11.974Z,22.80
2017-09-30T18:19:39.607Z,16.08
2017-09-30T18:22:07.200Z,27.70
2017-09-30T18:24:34.825Z,13.30
2017-09-30T18:27:02.456Z,24.27
2017-09-30T18:29:30.086Z,24.10
2017-09-30T18:31:57.711Z,16.15
2017-09-30T18:34:25.342Z,19.80
2017-09-30T18:36:52.968Z,22.65
2017-09-30T18:39:20.547Z,16.15
2017-09-30T18:41:48.148Z,14.60
2017-09-30T18:44:15.729Z,16.40
2017-09-30T18:46:43.372Z,17.08
2017-09-30T18:49:11.035Z,23.52
2017-09-30T18:51:38.678Z,16.37
2017-09-30T18:54:06.290Z,18.23
2017-09-30T18:56:33.935Z,20.15
2017-09-30T18:59:01.531Z,31.58
2017-09-30T19:01:29.210Z,24.25
2017-09-30T19:03:56.841Z,38.17
2017-09-30T19:06:24.532Z,29.10
2017-09-30T19:08:52.156Z,24.08
2017-09-30T19:11:19.819Z,22.75
2017-09-30T19:13:47.463Z,39.57
2017-09-30T19:16:15.080Z,23.27
2017-09-30T19:18:42.679Z,27.40
2017-09-30T19:21:10.346Z,21.33
2017-09-30T19:23:37.990Z,18.05
2017-09-30T19:26:05.629Z,17.23
2017-09-30T19:28:33.314Z,21.30
2017-09-30T19:31:01.875Z,19.45
2017-09-30T19:33:29.482Z,25.42
2017-09-30T19:35:57.072Z,20.70
2017-09-30T19:38:25.483Z,17.60
2017-09-30T19:40:53.038Z,16.73
2017-09-30T19:43:20.632Z,18.40
2017-09-30T19:45:48.234Z,19.02
2017-09-30T19:48:16.599Z,20.65
2017-09-30T19:50:45.002Z,16.00
2017-09-30T19:53:12.639Z,23.60
2017-09-30T19:55:40.280Z,19.77
2017-09-30T19:58:07.874Z,18.33
2017-09-30T20:00:36.289Z,22.80
2017-09-30T20:03:04.066Z,20.80
2017-09-30T20:05:31.662Z,56.17
2017-09-30T20:07:59.390Z,17.05
2017-09-30T20:10:27.022Z,19.70
2017-09-30T20:12:54.680Z,23.65
2017-09-30T20:15:22.385Z,19.95
2017-09-30T20:17:49.998Z,19.95
2017-09-30T20:20:18.374Z,25.90
2017-09-30T20:22:46.026Z,27.52
2017-09-30T20:25:14.383Z,17.98
2017-09-30T20:27:42.025Z,23.33
2017-09-30T20:30:09.647Z,23.15
2017-09-30T20:32:37.287Z,19.02
2017-09-30T20:35:04.911Z,18.05
2017-09-30T20:37:32.546Z,19.95
2017-09-30T20:40:00.178Z,22.77
2017-09-30T20:42:28.590Z,22.40
2017-09-30T20:44:56.228Z,27.55
2017-09-30T20:47:23.889Z,19.58
2017-09-30T20:49:51.714Z,20.17
2017-09-30T20:52:19.345Z,27.20
2017-09-30T20:54:46.929Z,27.42
2017-09-30T20:57:14.617Z,22.02
2017-09-30T20:59:42.268Z,32.80
2017-09-30T21:02:09.972Z,25.12
2017-09-30T21:04:37.610Z,19.20
2017-09-30T21:07:05.247Z,20.92
2017-09-30T21:09:32.882Z,20.20
2017-09-30T21:12:00.585Z,21.80
2017-09-30T21:14:28.229Z,22.73
2017-09-30T21:16:56.022Z,22.58
2017-09-30T21:19:24.438Z,19.90
2017-09-30T21:21:52.111Z,26.33
2017-09-30T21:24:19.700Z,30.90
2017-09-30T21:26:47.308Z,26.33
2017-09-30T21:29:14.909Z,21.10
2017-09-30T21:31:42.545Z,23.25
2017-09-30T21:34:10.170Z,20.58
2017-09-30T21:36:37.806Z,22.30
2017-09-30T21:39:05.434Z,21.85
2017-09-30T21:41:33.050Z,22.80
2017-09-30T21:44:00.711Z,24.65
2017-09-30T21:46:28.336Z,24.23
2017-09-30T21:48:55.963Z,21.80
2017-09-30T21:51:23.592Z,17.55
2017-09-30T21:53:51.174Z,20.12
2017-09-30T21:56:18.846Z,20.58
2017-09-30T21:58:47.241Z,40.97
2017-09-30T22:01:14.928Z,26.00
2017-09-30T22:03:42.614Z,32.38
2017-09-30T22:06:10.289Z,16.25
2017-09-30T22:08:37.919Z,26.98
2017-09-30T22:11:05.483Z,23.27
2017-09-30T22:13:33.105Z,25.85
2017-09-30T22:16:00.707Z,18.80
2017-09-30T22:18:28.466Z,20.25
2017-09-30T22:20:56.096Z,25.12
2017-09-30T22:23:24.617Z,30.55
2017-09-30T22:25:52.239Z,16.48
2017-09-30T22:28:19.829Z,25.75
2017-09-30T22:30:47.466Z,20.88
2017-09-30T22:33:15.235Z,20.15
2017-09-30T22:35:42.837Z,20.98
2017-09-30T22:38:10.428Z,19.33
2017-09-30T22:40:38.863Z,23.77
2017-09-30T22:43:06.454Z,20.05
2017-09-30T22:45:34.083Z,20.12
2017-09-30T22:48:01.763Z,17.92
2017-09-30T22:50:29.477Z,16.60
2017-09-30T22:52:57.119Z,18.58
2017-09-30T22:55:24.749Z,21.87
2017-09-30T22:57:52.370Z,18.23
2017-09-30T23:00:20.015Z,27.45
2017-09-30T23:02:47.671Z,23.85
2017-09-30T23:05:15.401Z,32.03
2017-09-30T23:07:43.050Z,18.83
2017-09-30T23:10:10.687Z,22.27
2017-09-30T23:12:38.339Z,22.50
2017-09-30T23:15:05.951Z,22.05
2017-09-30T23:17:33.510Z,17.80
2017-09-30T23:20:01.142Z,23.65
2017-09-30T23:22:28.770Z,15.27
2017-09-30T23:24:56.385Z,22.50
2017-09-30T23:27:24.063Z,19.45
2017-09-30T23:29:51.711Z,21.67
2017-09-30T23:32:19.315Z,14.23
2017-09-30T23:34:46.949Z,17.80
2017-09-30T23:37:14.546Z,18.40
2017-09-30T23:39:42.185Z,21.67
2017-09-30T23:42:10.577Z,23.08
2017-09-30T23:44:38.933Z,23.33
2017-09-30T23:47:13.237Z,21.33
2017-09-30T23:49:41.758Z,21.30
2017-09-30T23:52:10.150Z,19.10
2017-09-30T23:54:37.790Z,16.48
2017-09-30T23:57:05.393Z,15.70
2017-09-30T23:59:33.018Z,20.85
